sensor_id;sensor_type;location;lat;lon;timestamp;pressure;altitude;pressure_sealevel;temperature;humidity
78665;BME280;67981;51.022;-2.870;2024-03-22T00:01:53;101013.88;;;9.26;93.29
78665;BME280;67981;51.022;-2.870;2024-03-22T00:04:19;101030.13;;;9.25;93.43
78665;BME280;67981;51.022;-2.870;2024-03-22T00:06:46;101038.81;;;9.27;93.79
78665;BME280;67981;51.022;-2.870;2024-03-22T00:09:12;101047.38;;;9.26;93.81
78665;BME280;67981;51.022;-2.870;2024-03-22T00:11:42;101042.91;;;9.22;93.83
78665;BME280;67981;51.022;-2.870;2024-03-22T00:14:08;101066.25;;;9.26;94.01
78665;BME280;67981;51.022;-2.870;2024-03-22T00:16:34;101073.34;;;9.32;94.26
78665;BME280;67981;51.022;-2.870;2024-03-22T00:18:59;101074.97;;;9.30;94.33
78665;BME280;67981;51.022;-2.870;2024-03-22T00:21:25;101081.94;;;9.32;94.70
78665;BME280;67981;51.022;-2.870;2024-03-22T00:23:50;101082.00;;;9.34;94.59
78665;BME280;67981;51.022;-2.870;2024-03-22T00:26:16;101093.25;;;9.36;94.64
78665;BME280;67981;51.022;-2.870;2024-03-22T00:28:41;101093.06;;;9.31;95.09
78665;BME280;67981;51.022;-2.870;2024-03-22T00:31:07;101098.31;;;9.34;95.16
78665;BME280;67981;51.022;-2.870;2024-03-22T00:33:33;101106.22;;;9.39;94.83
78665;BME280;67981;51.022;-2.870;2024-03-22T00:35:58;101100.19;;;9.38;94.92
78665;BME280;67981;51.022;-2.870;2024-03-22T00:38:24;101110.22;;;9.31;95.37
78665;BME280;67981;51.022;-2.870;2024-03-22T00:40:49;101137.44;;;9.24;96.05
78665;BME280;67981;51.022;-2.870;2024-03-22T00:43:15;101152.47;;;9.14;96.84
78665;BME280;67981;51.022;-2.870;2024-03-22T00:45:40;101196.22;;;9.14;97.44
78665;BME280;67981;51.022;-2.870;2024-03-22T00:48:06;101216.66;;;9.09;98.38
78665;BME280;67981;51.022;-2.870;2024-03-22T00:50:31;101233.47;;;9.01;99.53
78665;BME280;67981;51.022;-2.870;2024-03-22T00:52:57;101251.13;;;8.92;100.00
78665;BME280;67981;51.022;-2.870;2024-03-22T00:55:23;101280.88;;;8.86;100.00
78665;BME280;67981;51.022;-2.870;2024-03-22T00:57:48;101291.97;;;8.85;100.00
78665;BME280;67981;51.022;-2.870;2024-03-22T01:00:14;101298.78;;;8.83;100.00
78665;BME280;67981;51.022;-2.870;2024-03-22T01:02:41;101301.41;;;8.65;100.00
78665;BME280;67981;51.022;-2.870;2024-03-22T01:05:07;101310.78;;;8.63;100.00
78665;BME280;67981;51.022;-2.870;2024-03-22T01:07:32;101315.56;;;8.55;100.00
78665;BME280;67981;51.022;-2.870;2024-03-22T01:09:57;101319.72;;;8.52;100.00
78665;BME280;67981;51.022;-2.870;2024-03-22T01:12:23;101315.56;;;8.55;100.00
78665;BME280;67981;51.022;-2.870;2024-03-22T01:14:48;101302.44;;;8.49;100.00
78665;BME280;67981;51.022;-2.870;2024-03-22T01:17:14;101294.47;;;8.43;100.00
78665;BME280;67981;51.022;-2.870;2024-03-22T01:19:39;101303.09;;;8.44;100.00
78665;BME280;67981;51.022;-2.870;2024-03-22T01:22:04;101321.00;;;8.42;100.00
78665;BME280;67981;51.022;-2.870;2024-03-22T01:24:30;101339.88;;;8.43;100.00
78665;BME280;67981;51.022;-2.870;2024-03-22T01:26:55;101348.47;;;8.43;100.00
78665;BME280;67981;51.022;-2.870;2024-03-22T01:29:21;101364.25;;;8.51;100.00
78665;BME280;67981;51.022;-2.870;2024-03-22T01:31:47;101385.38;;;8.63;100.00
78665;BME280;67981;51.022;-2.870;2024-03-22T01:34:12;101389.97;;;8.70;100.00
78665;BME280;67981;51.022;-2.870;2024-03-22T01:36:38;101389.38;;;8.76;100.00
78665;BME280;67981;51.022;-2.870;2024-03-22T01:39:04;101379.69;;;8.70;100.00
78665;BME280;67981;51.022;-2.870;2024-03-22T01:41:29;101387.97;;;8.82;100.00
78665;BME280;67981;51.022;-2.870;2024-03-22T01:43:55;101379.75;;;8.91;100.00
78665;BME280;67981;51.022;-2.870;2024-03-22T01:46:20;101362.72;;;8.94;100.00
78665;BME280;67981;51.022;-2.870;2024-03-22T01:48:45;101356.97;;;9.00;100.00
78665;BME280;67981;51.022;-2.870;2024-03-22T01:51:11;101365.91;;;9.08;100.00
78665;BME280;67981;51.022;-2.870;2024-03-22T01:53:37;101357.75;;;9.18;100.00
78665;BME280;67981;51.022;-2.870;2024-03-22T01:56:03;101350.16;;;9.21;100.00
78665;BME280;67981;51.022;-2.870;2024-03-22T01:58:29;101363.41;;;9.30;100.00
